Time;durP1;ratioP1;P1;durP2;ratioP2;P2;SDS_P1;SDS_P2;PMS_P1;PMS_P2;Temp;Humidity;BMP_temperature;BMP_pressure;BME280_temperature;BME280_humidity;BME280_pressure;Samples;Min_cycle;Max_cycle;Signal;HPM_P1;HPM_P2
2022/03/17 00:01:25;;;;;;;32.55;23.65;;;10.70;99.90;;;;;;5072062;28;20732;-47
2022/03/17 00:03:51;;;;;;;31.40;23.33;;;10.70;99.90;;;;;;5071561;28;20720;-47
2022/03/17 00:06:17;;;;;;;29.38;23.55;;;10.70;99.90;;;;;;5071400;28;20166;-47
2022/03/17 00:08:43;;;;;;;29.63;22.85;;;10.70;99.90;;;;;;5071351;28;20167;-47
2022/03/17 00:11:08;;;;;;;29.08;23.10;;;10.70;99.90;;;;;;5071294;28;20269;-48
2022/03/17 00:13:34;;;;;;;30.83;23.75;;;10.70;99.90;;;;;;5071576;28;20162;-47
2022/03/17 00:15:59;;;;;;;27.70;21.92;;;10.70;99.90;;;;;;5071349;28;20170;-47
2022/03/17 00:18:25;;;;;;;30.77;22.88;;;10.70;99.90;;;;;;5071525;28;20200;-47
2022/03/17 00:20:51;;;;;;;28.27;22.33;;;10.70;99.90;;;;;;5071364;28;20259;-48
2022/03/17 00:23:16;;;;;;;30.20;24.40;;;10.70;99.90;;;;;;5071177;28;20166;-47
2022/03/17 00:25:42;;;;;;;28.73;22.33;;;10.70;99.90;;;;;;5071268;28;20477;-48
2022/03/17 00:28:07;;;;;;;30.42;23.77;;;10.60;99.90;;;;;;5071193;28;20166;-47
2022/03/17 00:30:33;;;;;;;30.85;23.70;;;10.60;99.90;;;;;;5072378;28;20179;-47
2022/03/17 00:32:59;;;;;;;29.45;21.80;;;10.60;99.90;;;;;;5074877;28;20253;-47
2022/03/17 00:35:38;;;;;;;27.05;22.63;;;10.60;99.90;;;;;;5075054;28;20651;-47
2022/03/17 00:38:10;;;;;;;30.95;22.33;;;10.60;99.90;;;;;;5074801;28;20549;-47
2022/03/17 00:40:37;;;;;;;29.23;21.77;;;10.60;99.90;;;;;;5074485;28;20701;-47
2022/03/17 00:43:07;;;;;;;27.10;22.42;;;10.60;99.90;;;;;;5074475;28;20564;-47
2022/03/17 00:45:32;;;;;;;30.50;24.15;;;10.60;99.90;;;;;;5074601;28;20186;-47
2022/03/17 00:47:58;;;;;;;30.83;25.52;;;10.60;99.90;;;;;;5074557;28;20307;-48
2022/03/17 00:50:25;;;;;;;33.85;25.27;;;10.50;99.90;;;;;;5074377;28;20255;-47
2022/03/17 00:52:52;;;;;;;34.38;24.63;;;10.50;99.90;;;;;;5074298;28;20162;-47
2022/03/17 00:55:18;;;;;;;29.85;23.48;;;10.50;99.90;;;;;;5074243;28;20666;-47
2022/03/17 00:57:44;;;;;;;30.52;24.08;;;10.50;99.90;;;;;;5074388;28;20181;-47
2022/03/17 01:00:14;;;;;;;32.15;25.05;;;10.50;99.90;;;;;;5074086;28;20671;-47
2022/03/17 01:02:41;;;;;;;33.03;25.15;;;10.50;99.90;;;;;;5073788;28;20564;-47
2022/03/17 01:05:07;;;;;;;31.20;24.55;;;10.50;99.90;;;;;;5074367;28;20574;-47
2022/03/17 01:07:33;;;;;;;31.08;25.20;;;10.50;99.90;;;;;;5074176;28;20237;-47
2022/03/17 01:09:59;;;;;;;31.70;24.50;;;10.50;99.90;;;;;;5074326;28;20170;-47
2022/03/17 01:12:25;;;;;;;31.73;26.08;;;10.50;99.90;;;;;;5056392;28;20268;-47
2022/03/17 01:14:50;;;;;;;34.25;25.67;;;10.50;99.90;;;;;;5055966;28;20227;-47
2022/03/17 01:17:16;;;;;;;33.55;26.02;;;10.40;99.90;;;;;;5073849;28;20166;-47
2022/03/17 01:19:41;;;;;;;31.98;24.88;;;10.50;99.90;;;;;;5074006;28;20202;-47
2022/03/17 01:22:07;;;;;;;34.08;25.67;;;10.40;99.90;;;;;;5073798;28;20533;-47
2022/03/17 01:24:33;;;;;;;33.88;24.73;;;10.50;99.90;;;;;;5073748;28;20655;-48
2022/03/17 01:26:58;;;;;;;33.40;24.95;;;10.50;99.90;;;;;;5073933;28;20196;-47
2022/03/17 01:29:26;;;;;;;33.08;25.45;;;9.80;99.90;;;;;;5074035;28;20170;-47
2022/03/17 01:31:52;;;;;;;32.60;26.23;;;10.50;99.90;;;;;;5073660;28;20266;-48
2022/03/17 01:34:18;;;;;;;32.67;24.95;;;10.50;99.90;;;;;;5073497;28;20240;-47
2022/03/17 01:36:44;;;;;;;37.25;25.38;;;10.50;99.90;;;;;;5073459;28;20563;-47
2022/03/17 01:39:10;;;;;;;33.25;24.88;;;10.50;99.90;;;;;;5073444;28;20209;-47
2022/03/17 01:41:35;;;;;;;34.67;26.45;;;10.50;99.90;;;;;;5072932;28;20200;-47
2022/03/17 01:44:01;;;;;;;33.88;25.00;;;10.50;99.90;;;;;;5073270;28;20208;-47
2022/03/17 01:46:27;;;;;;;32.53;24.52;;;10.50;99.90;;;;;;5073518;28;20287;-48
2022/03/17 01:48:53;;;;;;;28.65;22.65;;;10.50;99.90;;;;;;5073262;28;20639;-47
2022/03/17 01:51:19;;;;;;;31.58;22.83;;;10.50;99.90;;;;;;5073183;28;20158;-47
2022/03/17 01:53:45;;;;;;;30.42;25.00;;;10.50;99.90;;;;;;5073136;28;20224;-47
2022/03/17 01:56:10;;;;;;;34.42;25.65;;;10.50;99.90;;;;;;5073071;28;20190;-47
2022/03/17 01:58:36;;;;;;;31.15;24.55;;;10.50;99.90;;;;;;5073239;28;20533;-47
2022/03/17 02:01:03;;;;;;;31.08;24.10;;;10.50;99.90;;;;;;5073001;28;20207;-47
2022/03/17 02:03:28;;;;;;;32.58;24.73;;;10.50;99.90;;;;;;5073161;28;20198;-47
2022/03/17 02:05:54;;;;;;;31.23;25.90;;;10.50;99.90;;;;;;5072949;28;20528;-47
2022/03/17 02:08:20;;;;;;;37.78;26.17;;;10.50;99.90;;;;;;5054949;28;20257;-48
2022/03/17 02:13:30;;;;;;;32.85;25.45;;;10.50;99.90;;;;;;5073107;28;20200;-47
2022/03/17 02:15:56;;;;;;;36.45;26.35;;;10.50;99.90;;;;;;5073087;28;20567;-47
2022/03/17 02:18:22;;;;;;;31.98;25.70;;;10.50;99.90;;;;;;5072581;28;20170;-47
2022/03/17 02:20:49;;;;;;;31.30;25.75;;;10.50;99.90;;;;;;5072588;28;20198;-47
2022/03/17 02:26:02;;;;;;;34.50;26.48;;;10.50;99.90;;;;;;5072776;28;20193;-47
2022/03/17 02:28:29;;;;;;;35.00;26.63;;;10.50;99.90;;;;;;5054963;28;20174;-48
2022/03/17 02:30:56;;;;;;;35.05;27.08;;;10.50;99.90;;;;;;5072694;28;20158;-47
2022/03/17 02:33:22;;;;;;;34.40;26.27;;;10.50;99.90;;;;;;5072386;28;20165;-47
2022/03/17 02:35:49;;;;;;;35.17;26.88;;;10.50;99.90;;;;;;5072428;28;20556;-48
2022/03/17 02:38:15;;;;;;;34.67;26.65;;;10.50;99.90;;;;;;5072564;28;20580;-47
2022/03/17 02:40:46;;;;;;;34.20;27.20;;;10.50;99.90;;;;;;5072268;28;20263;-48
2022/03/17 02:43:14;;;;;;;36.58;27.02;;;10.50;99.90;;;;;;5072224;28;20694;-47
2022/03/17 02:45:40;;;;;;;35.17;27.90;;;10.40;99.90;;;;;;5072410;28;20260;-48
2022/03/17 02:48:06;;;;;;;34.30;26.55;;;10.40;99.90;;;;;;5072025;28;20205;-47
2022/03/17 02:50:32;;;;;;;38.47;28.33;;;10.40;99.90;;;;;;5054225;28;20176;-48
2022/03/17 02:53:05;;;;;;;39.63;28.27;;;10.40;99.90;;;;;;5072486;28;20193;-48
2022/03/17 02:55:34;;;;;;;36.22;27.80;;;10.50;99.90;;;;;;5072391;28;20173;-47
2022/03/17 02:58:00;;;;;;;33.15;26.60;;;10.40;99.90;;;;;;5072010;28;20173;-47
2022/03/17 03:00:25;;;;;;;34.05;26.60;;;10.50;99.90;;;;;;5072223;28;20205;-48
2022/03/17 03:02:51;;;;;;;38.60;27.20;;;10.50;99.90;;;;;;5072025;28;20177;-47
2022/03/17 03:05:16;;;;;;;34.47;26.27;;;10.50;99.90;;;;;;5071949;28;20581;-47
2022/03/17 03:07:42;;;;;;;36.65;28.13;;;10.50;99.90;;;;;;5071904;28;20192;-47
2022/03/17 03:10:08;;;;;;;36.78;26.65;;;10.60;99.90;;;;;;5053999;28;20170;-47
2022/03/17 03:12:33;;;;;;;33.55;26.85;;;10.60;99.90;;;;;;5071914;28;20166;-47
2022/03/17 03:14:59;;;;;;;37.78;28.35;;;10.60;99.90;;;;;;5072116;28;20165;-47
2022/03/17 03:17:26;;;;;;;38.85;28.45;;;10.60;99.90;;;;;;5072377;28;20226;-48
2022/03/17 03:19:51;;;;;;;36.50;27.73;;;10.60;99.90;;;;;;5072023;28;20206;-47
2022/03/17 03:22:17;;;;;;;36.70;28.40;;;10.60;99.90;;;;;;5071747;28;20166;-47
2022/03/17 03:24:43;;;;;;;37.65;28.70;;;10.60;99.90;;;;;;5072074;28;20207;-47
2022/03/17 03:27:09;;;;;;;36.88;27.92;;;10.50;99.90;;;;;;5071723;28;20165;-47
2022/03/17 03:29:35;;;;;;;42.90;28.20;;;10.50;99.90;;;;;;5071733;28;20170;-47
2022/03/17 03:32:05;;;;;;;36.50;26.30;;;10.50;99.90;;;;;;5072174;28;20178;-47
2022/03/17 03:34:32;;;;;;;35.17;27.42;;;10.50;99.90;;;;;;5071653;28;20244;-47
2022/03/17 03:39:42;;;;;;;36.50;26.90;;;10.50;99.90;;;;;;5071849;28;20624;-47
2022/03/17 03:42:09;;;;;;;34.30;25.95;;;10.50;99.90;;;;;;5071953;28;20166;-47
2022/03/17 03:44:36;;;;;;;33.38;25.58;;;10.50;99.90;;;;;;5071603;28;20257;-47
2022/03/17 03:47:02;;;;;;;35.58;25.55;;;10.50;99.90;;;;;;5071447;28;20206;-48
2022/03/17 03:49:28;;;;;;;33.25;25.23;;;10.50;99.90;;;;;;5072189;28;20529;-47
2022/03/17 03:51:53;;;;;;;32.00;24.17;;;10.60;99.90;;;;;;5071535;28;20162;-47
2022/03/17 03:54:19;;;;;;;31.98;25.02;;;10.60;99.90;;;;;;5071507;28;20180;-47
2022/03/17 03:56:49;;;;;;;28.98;22.13;;;10.60;99.90;;;;;;5071499;28;20201;-47
2022/03/17 03:59:20;;;;;;;29.52;22.88;;;10.70;99.90;;;;;;5071358;28;20186;-48
2022/03/17 04:01:53;;;;;;;29.63;21.98;;;10.80;99.90;;;;;;5071669;28;20170;-47
2022/03/17 04:04:20;;;;;;;28.63;21.10;;;10.80;99.90;;;;;;5071388;28;20386;-47
2022/03/17 04:06:48;;;;;;;32.25;20.92;;;10.80;99.90;;;;;;5074646;28;20226;-47
2022/03/17 04:09:14;;;;;;;26.77;21.15;;;10.80;99.90;;;;;;5075214;28;20571;-46
2022/03/17 04:11:41;;;;;;;29.83;21.42;;;10.80;99.90;;;;;;5075022;28;20561;-47
2022/03/17 04:14:07;;;;;;;28.88;21.25;;;10.90;99.90;;;;;;5057069;28;20201;-47
2022/03/17 04:16:33;;;;;;;30.73;22.02;;;10.90;99.90;;;;;;5075003;28;20619;-47
2022/03/17 04:18:59;;;;;;;33.33;24.02;;;10.90;99.90;;;;;;5075454;28;20531;-47
2022/03/17 04:21:24;;;;;;;29.17;22.55;;;10.90;99.90;;;;;;5075196;28;20173;-47
2022/03/17 04:23:50;;;;;;;31.17;23.52;;;10.80;99.90;;;;;;5074809;28;20177;-48
2022/03/17 04:26:16;;;;;;;32.28;23.88;;;10.80;99.90;;;;;;5074886;28;20220;-47
2022/03/17 04:28:41;;;;;;;37.42;26.10;;;10.80;99.90;;;;;;5074873;28;20173;-47
2022/03/17 04:31:07;;;;;;;49.80;27.90;;;10.80;99.90;;;;;;5074842;28;20177;-47
2022/03/17 04:33:32;;;;;;;41.42;27.30;;;10.80;99.90;;;;;;5075020;28;20553;-47
2022/03/17 04:35:58;;;;;;;44.05;27.00;;;10.80;99.90;;;;;;5075220;28;20161;-47
2022/03/17 04:38:25;;;;;;;53.70;30.33;;;10.80;99.90;;;;;;5074743;28;20595;-48
2022/03/17 04:40:50;;;;;;;51.80;30.02;;;10.80;99.90;;;;;;5074563;28;20197;-47
2022/03/17 04:43:20;;;;;;;60.55;29.48;;;10.80;99.90;;;;;;5056580;28;20170;-47
2022/03/17 04:45:46;;;;;;;53.85;27.98;;;10.80;99.90;;;;;;5074710;28;20166;-47
2022/03/17 04:48:12;;;;;;;43.40;28.05;;;10.80;99.90;;;;;;5074270;28;20687;-47
2022/03/17 04:50:38;;;;;;;55.97;29.58;;;10.80;99.90;;;;;;5074360;28;20166;-47
2022/03/17 04:55:51;;;;;;;52.13;29.15;;;10.80;99.90;;;;;;5074293;28;20181;-47
2022/03/17 04:58:17;;;;;;;50.92;29.08;;;10.70;99.90;;;;;;5056271;28;20173;-47
2022/03/17 05:00:43;;;;;;;45.40;27.33;;;10.70;99.90;;;;;;5056087;28;20205;-47
2022/03/17 05:03:09;;;;;;;49.65;29.58;;;10.80;99.90;;;;;;5074136;28;20240;-47
2022/03/17 05:05:35;;;;;;;54.08;28.63;;;10.70;99.90;;;;;;5074086;28;20208;-47
2022/03/17 05:08:00;;;;;;;49.20;29.50;;;10.70;99.90;;;;;;5074096;28;20166;-47
2022/03/17 05:10:28;;;;;;;50.47;27.40;;;10.70;99.90;;;;;;5074283;28;20174;-47
2022/03/17 05:12:54;;;;;;;44.20;26.35;;;10.70;99.90;;;;;;5073893;28;20216;-47
2022/03/17 05:15:20;;;;;;;43.65;27.65;;;10.70;99.90;;;;;;5074268;28;20220;-47
2022/03/17 05:17:47;;;;;;;37.65;25.23;;;10.70;99.90;;;;;;5072632;28;20167;-47
2022/03/17 05:20:13;;;;;;;40.75;25.38;;;10.70;99.90;;;;;;5073894;28;20205;-47
2022/03/17 05:22:39;;;;;;;38.47;25.92;;;10.70;99.90;;;;;;5073808;28;20224;-47
2022/03/17 05:25:08;;;;;;;38.20;26.33;;;10.70;99.90;;;;;;5073912;28;20181;-47
2022/03/17 05:27:39;;;;;;;39.05;26.98;;;10.60;99.90;;;;;;5073825;28;20257;-47
2022/03/17 05:30:06;;;;;;;35.95;24.17;;;10.60;99.90;;;;;;5073608;28;20639;-47
2022/03/17 05:32:32;;;;;;;41.08;25.95;;;10.60;99.90;;;;;;5073556;28;20181;-47
2022/03/17 05:34:58;;;;;;;44.03;25.50;;;10.60;99.90;;;;;;5073704;28;20636;-47
2022/03/17 05:37:23;;;;;;;34.90;22.70;;;10.50;99.90;;;;;;5073428;28;20166;-47
2022/03/17 05:39:49;;;;;;;24.48;17.23;;;10.50;99.90;;;;;;5073581;28;20201;-47
2022/03/17 05:42:15;;;;;;;20.77;13.30;;;10.40;99.90;;;;;;5073426;28;20166;-47
2022/03/17 05:44:41;;;;;;;24.08;17.55;;;10.30;99.90;;;;;;5073418;28;20264;-47
2022/03/17 05:47:06;;;;;;;23.23;18.00;;;10.10;99.90;;;;;;5072608;28;20221;-47
2022/03/17 05:49:32;;;;;;;22.67;13.55;;;10.10;99.90;;;;;;5073084;28;20177;-47
2022/03/17 05:51:57;;;;;;;23.67;16.40;;;10.00;99.90;;;;;;5073548;28;20178;-47
2022/03/17 05:54:23;;;;;;;26.27;18.63;;;9.90;99.90;;;;;;5073176;28;20170;-47
2022/03/17 05:56:48;;;;;;;30.00;18.33;;;9.80;99.90;;;;;;5073022;28;20205;-47
2022/03/17 05:59:14;;;;;;;26.73;16.33;;;9.80;99.90;;;;;;5072977;28;20201;-47
2022/03/17 06:01:39;;;;;;;27.05;18.05;;;9.80;99.90;;;;;;5072922;28;20508;-47
2022/03/17 06:04:05;;;;;;;28.92;18.85;;;9.80;99.90;;;;;;5072902;28;20268;-47
2022/03/17 06:06:30;;;;;;;28.33;17.90;;;9.80;99.90;;;;;;5072829;28;20718;-47
2022/03/17 06:08:56;;;;;;;33.05;21.88;;;9.70;99.90;;;;;;5073197;28;20166;-47
2022/03/17 06:11:21;;;;;;;30.63;21.30;;;9.80;99.90;;;;;;5072853;28;20256;-47
2022/03/17 06:13:48;;;;;;;30.45;18.63;;;9.70;99.90;;;;;;5072717;28;20189;-47
2022/03/17 06:16:13;;;;;;;23.67;16.25;;;9.70;99.90;;;;;;5072711;28;20166;-47
2022/03/17 06:18:40;;;;;;;29.58;17.65;;;9.70;99.90;;;;;;5072759;28;20177;-47
2022/03/17 06:21:06;;;;;;;30.75;20.45;;;9.70;99.90;;;;;;5072513;28;20213;-47
2022/03/17 06:23:32;;;;;;;33.40;19.90;;;9.70;99.90;;;;;;5072612;28;20162;-47
2022/03/17 06:25:57;;;;;;;25.58;16.08;;;9.60;99.90;;;;;;5072827;28;20170;-47
2022/03/17 06:28:23;;;;;;;31.45;21.73;;;9.60;99.90;;;;;;5072373;28;20690;-48
2022/03/17 06:30:49;;;;;;;30.75;19.98;;;9.50;99.90;;;;;;5072686;28;20198;-47
2022/03/17 06:33:15;;;;;;;27.58;18.38;;;9.50;99.90;;;;;;5072534;28;20516;-47
2022/03/17 06:35:40;;;;;;;29.63;19.25;;;9.40;99.90;;;;;;5072593;28;20249;-47
2022/03/17 06:38:07;;;;;;;25.65;16.15;;;9.40;99.90;;;;;;5072389;28;20202;-47
2022/03/17 06:40:35;;;;;;;23.65;15.65;;;9.40;99.90;;;;;;5072385;28;20218;-47
2022/03/17 06:43:01;;;;;;;24.65;15.77;;;9.30;99.90;;;;;;5072314;28;20669;-47
2022/03/17 06:45:27;;;;;;;23.00;16.30;;;9.30;99.90;;;;;;5072695;28;20256;-47
2022/03/17 06:47:54;;;;;;;22.55;14.57;;;9.20;99.90;;;;;;5071997;28;20297;-47
2022/03/17 06:50:21;;;;;;;24.77;12.55;;;9.20;99.90;;;;;;5071993;28;20219;-47
2022/03/17 06:52:47;;;;;;;21.90;14.75;;;9.10;99.90;;;;;;5072304;28;20199;-47
2022/03/17 06:55:13;;;;;;;21.35;14.90;;;9.10;99.90;;;;;;5072014;28;20208;-47
2022/03/17 06:57:39;;;;;;;16.83;11.10;;;9.10;99.90;;;;;;5071887;28;20162;-47
2022/03/17 07:00:23;;;;;;;18.23;12.68;;;9.10;99.90;;;;;;5071722;28;20343;-47
2022/03/17 07:02:48;;;;;;;21.10;13.82;;;9.10;99.90;;;;;;5071767;28;20166;-47
2022/03/17 07:05:14;;;;;;;17.83;13.25;;;9.00;99.90;;;;;;5071953;28;20177;-47
2022/03/17 07:07:41;;;;;;;17.63;13.25;;;9.00;99.90;;;;;;5072141;28;20173;-47
2022/03/17 07:10:07;;;;;;;22.45;14.57;;;8.90;99.90;;;;;;5071989;28;20170;-47
2022/03/17 07:12:33;;;;;;;26.38;13.77;;;8.90;99.90;;;;;;5071905;28;20186;-47
2022/03/17 07:14:59;;;;;;;17.67;12.15;;;8.90;99.90;;;;;;5071973;28;20180;-47
2022/03/17 07:17:26;;;;;;;18.77;13.30;;;8.90;99.90;;;;;;5072139;28;20173;-47
2022/03/17 07:22:27;;;;;;;20.30;12.98;;;9.00;99.90;;;;;;5071794;28;20162;-47
2022/03/17 07:24:53;;;;;;;17.52;11.52;;;9.00;99.90;;;;;;5071478;28;20169;-47
2022/03/17 07:27:21;;;;;;;14.98;9.93;;;9.00;99.90;;;;;;5071413;28;20678;-47
2022/03/17 07:29:47;;;;;;;11.85;8.52;;;9.00;99.90;;;;;;5071172;28;20158;-47
2022/03/17 07:32:13;;;;;;;11.45;9.27;;;9.00;99.90;;;;;;5071567;28;20632;-47
2022/03/17 07:34:38;;;;;;;12.35;8.73;;;9.10;99.90;;;;;;5071251;28;20166;-47
2022/03/17 07:37:05;;;;;;;12.60;8.30;;;9.10;99.90;;;;;;5071593;28;20176;-47
2022/03/17 07:39:30;;;;;;;10.73;6.28;;;9.20;99.90;;;;;;5071500;28;20679;-47
2022/03/17 07:41:56;;;;;;;8.18;6.53;;;9.20;99.90;;;;;;5075839;28;20166;-47
2022/03/17 07:44:21;;;;;;;12.35;6.00;;;9.20;99.90;;;;;;5057563;28;20166;-46
2022/03/17 07:46:48;;;;;;;5.97;4.95;;;9.20;99.90;;;;;;5075285;28;20213;-47
2022/03/17 07:49:14;;;;;;;8.98;6.13;;;9.10;99.90;;;;;;5075679;28;20170;-47
2022/03/17 07:51:40;;;;;;;8.13;5.82;;;9.10;99.90;;;;;;5075703;28;20162;-47
2022/03/17 07:54:07;;;;;;;10.48;6.85;;;9.10;99.90;;;;;;5075472;28;20177;-47
2022/03/17 07:56:33;;;;;;;11.88;7.03;;;9.00;99.90;;;;;;5055812;28;20663;-47
2022/03/17 07:59:00;;;;;;;11.48;8.20;;;9.00;99.90;;;;;;5073874;28;20174;-46
2022/03/17 08:01:26;;;;;;;16.40;8.77;;;9.10;99.90;;;;;;5074121;28;20243;-47
2022/03/17 08:03:55;;;;;;;9.27;6.60;;;9.10;99.90;;;;;;5073299;28;20255;-49
2022/03/17 08:06:22;;;;;;;9.13;7.15;;;9.10;99.90;;;;;;5074090;28;20267;-48
2022/03/17 08:08:47;;;;;;;9.77;7.45;;;9.10;99.90;;;;;;5073626;28;20164;-48
2022/03/17 08:11:13;;;;;;;13.40;8.32;;;9.20;99.90;;;;;;5073645;28;20962;-49
2022/03/17 08:13:41;;;;;;;10.63;7.38;;;9.20;99.90;;;;;;5073443;28;20169;-50
2022/03/17 08:16:07;;;;;;;11.57;7.07;;;9.20;99.90;;;;;;5073525;28;20642;-49
2022/03/17 08:18:34;;;;;;;10.32;7.32;;;9.20;99.90;;;;;;5055478;28;20170;-49
2022/03/17 08:21:00;;;;;;;12.18;7.20;;;9.20;99.90;;;;;;5073350;28;20241;-50
2022/03/17 08:23:25;;;;;;;9.90;7.22;;;9.20;99.90;;;;;;5073333;28;20190;-48
2022/03/17 08:25:51;;;;;;;12.32;8.15;;;9.20;99.90;;;;;;5073982;28;20208;-48
2022/03/17 08:28:17;;;;;;;10.68;7.78;;;9.30;99.90;;;;;;5074433;28;20219;-48
2022/03/17 08:30:46;;;;;;;12.88;8.57;;;9.30;99.90;;;;;;5074642;28;20710;-47
2022/03/17 08:33:13;;;;;;;12.82;8.60;;;9.30;99.90;;;;;;5074946;28;20181;-47
2022/03/17 08:35:38;;;;;;;14.65;9.48;;;9.30;99.90;;;;;;5074659;28;20166;-48
2022/03/17 08:38:04;;;;;;;14.95;9.05;;;9.20;99.90;;;;;;5074523;28;20704;-47
2022/03/17 08:40:30;;;;;;;11.90;8.98;;;9.30;99.90;;;;;;5074385;28;20209;-47
2022/03/17 08:42:55;;;;;;;13.10;8.88;;;9.30;99.90;;;;;;5074841;28;20587;-47
2022/03/17 08:50:49;;;;;;;11.05;7.53;;;9.30;99.90;;;;;;5074130;28;20164;-47
2022/03/17 08:53:15;;;;;;;9.75;6.93;;;9.20;99.90;;;;;;5074124;28;20540;-47
2022/03/17 08:55:41;;;;;;;9.70;7.50;;;9.20;99.90;;;;;;5074120;28;20191;-47
2022/03/17 08:58:07;;;;;;;18.77;8.35;;;9.20;99.90;;;;;;5074027;28;20169;-47
2022/03/17 09:00:34;;;;;;;10.90;8.13;;;9.00;99.90;;;;;;5073494;28;20194;-47
2022/03/17 09:03:04;;;;;;;10.50;7.95;;;9.10;99.90;;;;;;5074306;28;20170;-47
2022/03/17 09:05:30;;;;;;;12.35;8.02;;;9.00;99.90;;;;;;5073908;28;20166;-47
2022/03/17 09:07:56;;;;;;;10.63;6.78;;;9.10;99.90;;;;;;5074471;28;20169;-47
2022/03/17 09:10:23;;;;;;;10.45;7.63;;;9.10;99.90;;;;;;5073740;28;20571;-47
2022/03/17 09:12:49;;;;;;;12.23;7.70;;;9.00;99.90;;;;;;5073904;28;20155;-48
2022/03/17 09:15:14;;;;;;;9.48;7.50;;;9.10;99.90;;;;;;5073801;28;20584;-47
2022/03/17 09:17:43;;;;;;;11.65;7.38;;;9.10;99.90;;;;;;5073653;28;20162;-47
2022/03/17 09:20:12;;;;;;;10.45;6.45;;;9.20;99.90;;;;;;5073699;28;20202;-47
2022/03/17 09:22:40;;;;;;;10.25;7.22;;;9.30;99.90;;;;;;5074012;28;20254;-47
2022/03/17 09:25:07;;;;;;;7.75;6.85;;;9.20;99.90;;;;;;5073937;28;20308;-47
2022/03/17 09:27:32;;;;;;;14.30;7.78;;;9.20;99.90;;;;;;5073855;28;20275;-47
2022/03/17 09:29:58;;;;;;;9.95;7.55;;;9.10;99.90;;;;;;5073960;28;20666;-47
2022/03/17 09:32:25;;;;;;;11.63;7.70;;;9.10;99.90;;;;;;5073829;28;20579;-47
2022/03/17 09:34:51;;;;;;;18.30;10.13;;;9.10;99.90;;;;;;5073706;28;20174;-47
2022/03/17 09:37:17;;;;;;;10.85;8.65;;;9.30;99.90;;;;;;5073301;28;20582;-47
2022/03/17 09:39:46;;;;;;;14.07;7.57;;;9.40;99.90;;;;;;5073288;28;20245;-47
2022/03/17 09:42:18;;;;;;;8.60;6.10;;;9.40;99.90;;;;;;5073595;28;20170;-47
2022/03/17 09:44:46;;;;;;;10.05;6.32;;;9.30;99.90;;;;;;5073559;28;20197;-47
2022/03/17 09:47:15;;;;;;;11.25;6.53;;;9.30;99.90;;;;;;5073028;28;20221;-47
2022/03/17 09:49:42;;;;;;;7.90;4.88;;;9.30;99.90;;;;;;5073213;28;20227;-48
2022/03/17 09:52:13;;;;;;;12.13;5.70;;;9.20;99.90;;;;;;5055067;28;20551;-47
2022/03/17 09:54:40;;;;;;;12.23;6.57;;;9.20;99.90;;;;;;5073334;28;20173;-47
2022/03/17 09:57:07;;;;;;;10.45;6.68;;;9.10;99.90;;;;;;5073113;28;20707;-47
2022/03/17 09:59:33;;;;;;;12.88;6.65;;;9.20;99.90;;;;;;5072878;28;20200;-47
2022/03/17 10:01:59;;;;;;;6.85;5.30;;;9.30;99.90;;;;;;5073239;28;20174;-47
2022/03/17 10:04:33;;;;;;;6.97;4.20;;;9.30;99.90;;;;;;5072512;28;20170;-47
2022/03/17 10:07:00;;;;;;;12.68;5.40;;;9.40;99.90;;;;;;5073147;28;20668;-47
2022/03/17 10:09:28;;;;;;;7.38;4.30;;;9.50;99.90;;;;;;5073306;28;20173;-47
2022/03/17 10:12:05;;;;;;;6.35;3.67;;;9.60;99.90;;;;;;5072707;28;20165;-47
2022/03/17 10:14:40;;;;;;;7.45;3.80;;;9.70;99.90;;;;;;5072826;28;20177;-47
2022/03/17 10:17:09;;;;;;;7.72;2.40;;;9.90;99.90;;;;;;5072673;28;20685;-47
2022/03/17 10:19:34;;;;;;;4.47;2.20;;;9.90;99.90;;;;;;5072539;28;20210;-47
2022/03/17 10:22:12;;;;;;;6.60;2.42;;;9.80;99.90;;;;;;5072831;28;20287;-46
2022/03/17 10:24:48;;;;;;;5.22;3.00;;;9.80;99.90;;;;;;5072451;28;20528;-47
2022/03/17 10:27:14;;;;;;;6.20;2.05;;;9.80;99.90;;;;;;5072451;28;20166;-47
2022/03/17 10:29:40;;;;;;;2.88;2.28;;;9.70;99.90;;;;;;5072647;28;20636;-47
2022/03/17 10:32:07;;;;;;;3.67;1.58;;;9.70;99.90;;;;;;5072409;28;20169;-48
2022/03/17 10:34:35;;;;;;;7.30;1.67;;;9.80;99.90;;;;;;5072287;28;20166;-47
2022/03/17 10:37:13;;;;;;;3.28;1.50;;;9.90;99.90;;;;;;5072286;28;20166;-47
2022/03/17 10:39:48;;;;;;;3.10;1.70;;;10.00;99.90;;;;;;5072270;28;20211;-47
2022/03/17 10:42:19;;;;;;;4.43;1.83;;;10.00;99.90;;;;;;5072108;28;20252;-47
2022/03/17 10:44:49;;;;;;;3.97;1.75;;;10.00;99.90;;;;;;5072572;28;20252;-47
2022/03/17 10:47:26;;;;;;;3.60;1.67;;;10.10;99.90;;;;;;5072078;28;20221;-48
2022/03/17 10:50:15;;;;;;;2.65;1.50;;;10.20;99.90;;;;;;5072098;28;20708;-47
2022/03/17 10:52:57;;;;;;;3.33;1.67;;;10.30;99.90;;;;;;5072440;28;20185;-47
2022/03/17 10:55:30;;;;;;;8.20;1.90;;;10.30;99.90;;;;;;5072106;28;20515;-47
2022/03/17 10:58:12;;;;;;;7.90;1.70;;;9.90;99.90;;;;;;5072312;28;20170;-47
2022/03/17 11:00:49;;;;;;;6.38;2.10;;;10.40;99.90;;;;;;5071823;28;20694;-47
2022/03/17 11:03:15;;;;;;;3.55;1.77;;;10.30;99.90;;;;;;5072262;28;20181;-47
2022/03/17 11:05:41;;;;;;;6.18;1.88;;;10.30;99.90;;;;;;5072155;28;20201;-47
2022/03/17 11:08:09;;;;;;;3.67;1.55;;;10.30;99.90;;;;;;5071883;28;20572;-47
2022/03/17 11:10:35;;;;;;;7.22;1.80;;;10.30;99.90;;;;;;5072129;28;20181;-47
2022/03/17 11:13:08;;;;;;;4.40;1.75;;;10.40;99.90;;;;;;5071751;28;20186;-47
2022/03/17 11:15:36;;;;;;;6.18;2.25;;;10.40;99.90;;;;;;5071857;28;20620;-47
2022/03/17 11:18:06;;;;;;;6.57;2.10;;;10.50;99.90;;;;;;5071972;28;20169;-47
2022/03/17 11:20:33;;;;;;;6.03;2.10;;;10.50;99.90;;;;;;5071892;28;20209;-47
2022/03/17 11:23:15;;;;;;;6.70;2.60;;;10.50;99.90;;;;;;5071980;28;20162;-47
2022/03/17 11:25:52;;;;;;;7.03;2.10;;;10.70;99.90;;;;;;5071944;28;20170;-47
2022/03/17 11:28:19;;;;;;;12.10;2.67;;;10.70;99.90;;;;;;5071661;28;20162;-47
2022/03/17 11:30:47;;;;;;;6.07;2.72;;;10.70;99.90;;;;;;5071932;28;20249;-47
2022/03/17 11:33:34;;;;;;;10.02;2.38;;;10.70;99.90;;;;;;5072006;28;20174;-46
2022/03/17 11:36:22;;;;;;;6.70;2.70;;;10.80;99.90;;;;;;5071846;28;20172;-46
2022/03/17 11:39:02;;;;;;;6.43;2.42;;;10.70;99.90;;;;;;5071716;28;20169;-47
2022/03/17 11:41:30;;;;;;;6.32;2.28;;;10.80;99.90;;;;;;5071861;28;20639;-47
2022/03/17 11:43:56;;;;;;;7.38;2.80;;;10.80;99.90;;;;;;5071856;28;20658;-47
2022/03/17 11:46:38;;;;;;;9.07;2.35;;;10.80;99.90;;;;;;5071536;28;20222;-47
2022/03/17 11:49:22;;;;;;;8.73;2.55;;;10.70;99.90;;;;;;5071536;28;20174;-47
2022/03/17 11:52:00;;;;;;;8.52;1.88;;;10.70;99.90;;;;;;5071518;28;20240;-47
2022/03/17 11:54:26;;;;;;;8.23;2.45;;;10.70;99.90;;;;;;5071938;28;20172;-46
2022/03/17 11:56:53;;;;;;;8.25;2.58;;;10.60;99.90;;;;;;5071480;28;20618;-47
2022/03/17 11:59:23;;;;;;;12.57;2.78;;;10.70;99.90;;;;;;5071374;28;20880;-47
2022/03/17 12:01:49;;;;;;;5.20;2.20;;;10.80;99.90;;;;;;5071543;28;20174;-46
2022/03/17 12:04:24;;;;;;;6.70;2.65;;;10.80;99.90;;;;;;5071260;28;20743;-47
2022/03/17 12:07:05;;;;;;;9.40;2.40;;;10.90;99.90;;;;;;5071605;28;20275;-46
2022/03/17 12:09:32;;;;;;;9.25;2.63;;;10.90;99.90;;;;;;5071346;28;20185;-46
2022/03/17 12:11:58;;;;;;;10.40;2.58;;;11.20;99.90;;;;;;5071741;28;20211;-46
2022/03/17 12:14:24;;;;;;;6.93;2.80;;;11.30;99.90;;;;;;5071525;28;20253;-46
2022/03/17 12:16:55;;;;;;;8.68;2.10;;;11.40;99.90;;;;;;5071469;28;20173;-46
2022/03/17 12:19:48;;;;;;;9.13;2.40;;;11.40;99.90;;;;;;5071091;28;20236;-46
2022/03/17 12:22:15;;;;;;;13.32;2.42;;;11.50;99.90;;;;;;5071380;28;20177;-46
2022/03/17 12:24:58;;;;;;;7.88;2.92;;;11.30;99.90;;;;;;5071126;28;20654;-47
2022/03/17 12:27:30;;;;;;;7.13;2.60;;;11.40;99.90;;;;;;5073887;28;20166;-46
2022/03/17 12:29:57;;;;;;;8.68;2.65;;;11.30;99.90;;;;;;5057004;28;20169;-46
2022/03/17 12:32:23;;;;;;;10.15;2.40;;;11.30;99.90;;;;;;5074558;28;20165;-46
2022/03/17 12:34:51;;;;;;;8.02;2.80;;;11.20;99.90;;;;;;5074480;28;20173;-46
2022/03/17 12:37:18;;;;;;;10.85;2.70;;;11.20;99.90;;;;;;5074600;28;20170;-47
2022/03/17 12:39:51;;;;;;;7.10;2.70;;;11.10;99.90;;;;;;5074429;28;20197;-46
2022/03/17 12:42:22;;;;;;;7.30;2.28;;;11.30;99.90;;;;;;5074489;28;20190;-47
2022/03/17 12:45:12;;;;;;;8.77;2.42;;;11.40;99.90;;;;;;5074441;28;20158;-47
2022/03/17 12:47:40;;;;;;;8.35;2.78;;;11.50;99.90;;;;;;5074731;28;20210;-47
2022/03/17 12:50:11;;;;;;;9.52;2.55;;;11.50;99.90;;;;;;5074154;28;20170;-47
2022/03/17 12:52:40;;;;;;;10.02;2.72;;;11.70;99.90;;;;;;5074374;28;20170;-47
2022/03/17 12:55:10;;;;;;;7.05;2.42;;;11.70;99.90;;;;;;5074250;28;20162;-47
2022/03/17 12:57:40;;;;;;;15.23;2.65;;;11.60;99.90;;;;;;5074084;28;20174;-47
2022/03/17 13:00:12;;;;;;;9.45;2.00;;;11.60;99.90;;;;;;5074384;28;20288;-47